Time;durP1;ratioP1;P1;durP2;ratioP2;P2;SDS_P1;SDS_P2;PMS_P1;PMS_P2;Temp;Humidity;BMP_temperature;BMP_pressure;BME280_temperature;BME280_humidity;BME280_pressure;Samples;Min_cycle;Max_cycle;Signal;HPM_P1;HPM_P2
2022/03/10 00:00:18;;;;;;;16.40;10.30;;;;;;;;;;4987488;28;20553;-55
2022/03/10 00:02:45;;;;;;;15.60;10.07;;;;;;;;;;4986790;28;20393;-55
2022/03/10 00:05:18;;;;;;;12.80;8.55;;;;;;;;;;4982535;28;20033;-56
2022/03/10 00:07:46;;;;;;;11.25;8.15;;;;;;;;;;4985110;28;20465;-54
2022/03/10 00:10:12;;;;;;;13.07;9.18;;;;;;;;;;4986128;28;20179;-54
2022/03/10 00:12:46;;;;;;;14.15;9.40;;;;;;;;;;4985567;28;20034;-55
2022/03/10 00:15:12;;;;;;;13.20;8.95;;;;;;;;;;4973708;28;20026;-55
2022/03/10 00:17:38;;;;;;;11.15;7.85;;;;;;;;;;4965899;28;20030;-55
2022/03/10 00:20:04;;;;;;;12.38;8.32;;;;;;;;;;4966451;28;20022;-54
2022/03/10 00:22:30;;;;;;;11.93;8.15;;;;;;;;;;4968196;28;20085;-55
2022/03/10 00:24:57;;;;;;;12.57;8.48;;;;;;;;;;4984961;28;20093;-55
2022/03/10 00:27:23;;;;;;;11.18;7.88;;;;;;;;;;4985854;28;20405;-55
2022/03/10 00:29:49;;;;;;;12.32;7.47;;;;;;;;;;4985172;28;20478;-55
2022/03/10 00:32:15;;;;;;;11.05;7.60;;;;;;;;;;4989051;28;20073;-55
2022/03/10 00:34:41;;;;;;;10.65;7.35;;;;;;;;;;4990779;28;20026;-55
2022/03/10 00:37:08;;;;;;;9.82;6.85;;;;;;;;;;4992276;28;20177;-56
2022/03/10 00:39:35;;;;;;;8.52;6.20;;;;;;;;;;4991946;28;20022;-55
2022/03/10 00:42:01;;;;;;;10.20;7.22;;;;;;;;;;4991576;28;20030;-56
2022/03/10 00:44:30;;;;;;;9.13;5.20;;;;;;;;;;4991003;28;20042;-55
2022/03/10 00:46:56;;;;;;;7.40;5.05;;;;;;;;;;4992068;28;20034;-54
2022/03/10 00:49:22;;;;;;;11.15;7.03;;;;;;;;;;4992028;28;20472;-55
2022/03/10 00:51:50;;;;;;;11.55;7.30;;;;;;;;;;4991703;28;20030;-56
2022/03/10 00:54:17;;;;;;;10.50;7.10;;;;;;;;;;4990617;28;20114;-55
2022/03/10 00:56:44;;;;;;;11.45;7.68;;;;;;;;;;4991406;28;20112;-55
2022/03/10 00:59:10;;;;;;;9.88;7.18;;;;;;;;;;4991910;28;20030;-54
2022/03/10 01:01:37;;;;;;;11.57;7.47;;;;;;;;;;4993592;28;20567;-55
2022/03/10 01:04:03;;;;;;;10.85;7.50;;;;;;;;;;5008707;28;20076;-56
2022/03/10 01:06:29;;;;;;;11.90;7.88;;;;;;;;;;4990083;28;20042;-55
2022/03/10 01:08:55;;;;;;;11.35;7.90;;;;;;;;;;4991763;28;20525;-55
2022/03/10 01:11:21;;;;;;;10.88;7.35;;;;;;;;;;4991445;28;20035;-55
2022/03/10 01:13:47;;;;;;;10.70;7.32;;;;;;;;;;4991120;28;20524;-55
2022/03/10 01:16:13;;;;;;;8.90;6.88;;;;;;;;;;4990642;28;20038;-55
2022/03/10 01:18:39;;;;;;;10.20;7.20;;;;;;;;;;4991096;28;20564;-55
2022/03/10 01:21:06;;;;;;;10.18;6.90;;;;;;;;;;4991518;28;20505;-55
2022/03/10 01:23:34;;;;;;;9.75;6.97;;;;;;;;;;4990663;28;20657;-55
2022/03/10 01:26:00;;;;;;;10.20;6.72;;;;;;;;;;4990391;28;20062;-55
2022/03/10 01:28:26;;;;;;;9.27;6.50;;;;;;;;;;4991916;28;21104;-55
2022/03/10 01:30:53;;;;;;;9.52;6.43;;;;;;;;;;4991169;28;20046;-55
2022/03/10 01:33:19;;;;;;;8.48;5.70;;;;;;;;;;4990934;28;20026;-56
2022/03/10 01:35:46;;;;;;;7.28;5.10;;;;;;;;;;4990504;28;20453;-55
2022/03/10 01:38:12;;;;;;;7.47;5.18;;;;;;;;;;4991154;28;20033;-55
2022/03/10 01:40:38;;;;;;;9.18;5.30;;;;;;;;;;4990476;28;20038;-56
2022/03/10 01:43:04;;;;;;;8.45;4.95;;;;;;;;;;4988860;28;20037;-55
2022/03/10 01:45:30;;;;;;;6.78;4.78;;;;;;;;;;4987442;28;20026;-54
2022/03/10 01:47:56;;;;;;;7.53;5.20;;;;;;;;;;4988219;28;20572;-55
2022/03/10 01:50:23;;;;;;;8.48;5.18;;;;;;;;;;4988684;28;20030;-56
2022/03/10 01:52:49;;;;;;;6.15;4.45;;;;;;;;;;4987805;28;20404;-55
2022/03/10 01:55:16;;;;;;;7.43;5.38;;;;;;;;;;4969653;28;20383;-54
2022/03/10 01:57:43;;;;;;;11.35;7.75;;;;;;;;;;4987651;28;20478;-55
2022/03/10 02:00:10;;;;;;;8.73;6.03;;;;;;;;;;4988248;28;20101;-55
2022/03/10 02:02:37;;;;;;;8.55;5.85;;;;;;;;;;4987493;28;20109;-55
2022/03/10 02:05:03;;;;;;;9.60;6.55;;;;;;;;;;4987070;28;20478;-55
2022/03/10 02:10:18;;;;;;;11.50;8.15;;;;;;;;;;4988004;28;20064;-55
2022/03/10 02:12:45;;;;;;;10.52;7.13;;;;;;;;;;4987406;28;20066;-55
2022/03/10 02:18:09;;;;;;;9.77;6.60;;;;;;;;;;4987915;28;20531;-56
2022/03/10 02:20:36;;;;;;;11.98;7.28;;;;;;;;;;4983252;28;20033;-55
2022/03/10 02:23:03;;;;;;;10.27;7.05;;;;;;;;;;4967732;28;20031;-55
2022/03/10 02:25:31;;;;;;;9.98;6.80;;;;;;;;;;4980955;28;20026;-55
2022/03/10 02:27:57;;;;;;;11.43;6.93;;;;;;;;;;4986732;28;20038;-55
2022/03/10 02:30:24;;;;;;;11.45;8.25;;;;;;;;;;4987995;28;20030;-55
2022/03/10 02:32:52;;;;;;;10.10;6.53;;;;;;;;;;4986865;28;20026;-55
2022/03/10 02:35:18;;;;;;;9.05;6.43;;;;;;;;;;4987091;28;20033;-55
2022/03/10 02:37:45;;;;;;;9.38;6.63;;;;;;;;;;4967558;28;20034;-55
2022/03/10 02:40:11;;;;;;;10.25;7.22;;;;;;;;;;4967980;28;20026;-54
2022/03/10 02:42:37;;;;;;;9.82;6.95;;;;;;;;;;4970609;28;20532;-55
2022/03/10 02:45:04;;;;;;;11.30;7.18;;;;;;;;;;4986713;28;20038;-55
2022/03/10 02:47:30;;;;;;;10.27;6.97;;;;;;;;;;4985539;28;20460;-55
2022/03/10 02:49:56;;;;;;;12.15;7.13;;;;;;;;;;4987343;28;20030;-55
2022/03/10 02:52:22;;;;;;;10.55;7.28;;;;;;;;;;4986807;28;20493;-54
2022/03/10 02:54:49;;;;;;;11.68;7.45;;;;;;;;;;4985852;28;20125;-55
2022/03/10 02:57:15;;;;;;;11.85;7.43;;;;;;;;;;4974376;28;20477;-55
2022/03/10 02:59:42;;;;;;;10.40;6.68;;;;;;;;;;4967112;28;20101;-54
2022/03/10 03:02:08;;;;;;;9.30;6.90;;;;;;;;;;4967178;28;20070;-55
2022/03/10 03:04:34;;;;;;;11.50;7.57;;;;;;;;;;4981024;28;20030;-55
2022/03/10 03:07:01;;;;;;;11.40;7.80;;;;;;;;;;4985675;28;20042;-55
2022/03/10 03:09:28;;;;;;;9.88;6.93;;;;;;;;;;4986930;28;20023;-55
2022/03/10 03:11:55;;;;;;;13.02;7.63;;;;;;;;;;4986831;28;20530;-55
2022/03/10 03:14:22;;;;;;;9.73;6.85;;;;;;;;;;4986081;28;20027;-55
2022/03/10 03:16:49;;;;;;;11.63;7.85;;;;;;;;;;4985600;28;20045;-55
2022/03/10 03:19:15;;;;;;;12.40;8.05;;;;;;;;;;4986581;28;20064;-56
2022/03/10 03:21:41;;;;;;;11.15;7.43;;;;;;;;;;4981685;28;20414;-55
2022/03/10 03:24:08;;;;;;;10.15;7.15;;;;;;;;;;4967141;28;20023;-55
2022/03/10 03:26:35;;;;;;;12.68;8.00;;;;;;;;;;4973118;28;20364;-55
2022/03/10 03:29:01;;;;;;;10.45;7.28;;;;;;;;;;4986014;28;20064;-54
2022/03/10 03:31:28;;;;;;;10.23;7.07;;;;;;;;;;4986038;28;20449;-55
2022/03/10 03:33:54;;;;;;;8.77;6.60;;;;;;;;;;4986527;28;20498;-54
2022/03/10 03:36:20;;;;;;;9.95;6.72;;;;;;;;;;4984931;28;20449;-55
2022/03/10 03:38:46;;;;;;;12.50;8.25;;;;;;;;;;4985463;28;20030;-55
2022/03/10 03:41:12;;;;;;;10.82;7.50;;;;;;;;;;4986139;28;20528;-55
2022/03/10 03:43:39;;;;;;;11.50;7.72;;;;;;;;;;4985936;28;20045;-55
2022/03/10 03:46:05;;;;;;;9.52;7.28;;;;;;;;;;4985073;28;20116;-54
2022/03/10 03:48:32;;;;;;;10.52;7.00;;;;;;;;;;4984894;28;20027;-55
2022/03/10 03:50:59;;;;;;;11.05;7.70;;;;;;;;;;4985539;28;20041;-54
2022/03/10 03:53:25;;;;;;;10.30;6.70;;;;;;;;;;4985780;28;20456;-55
2022/03/10 03:55:51;;;;;;;9.60;6.47;;;;;;;;;;4985732;28;20116;-55
2022/03/10 03:58:19;;;;;;;8.75;5.97;;;;;;;;;;4985442;28;20054;-55
2022/03/10 04:00:45;;;;;;;7.18;5.45;;;;;;;;;;4985800;28;20109;-55
2022/03/10 04:03:12;;;;;;;7.70;5.30;;;;;;;;;;4984772;28;20041;-55
2022/03/10 04:05:38;;;;;;;6.45;4.95;;;;;;;;;;4985504;28;20041;-54
2022/03/10 04:08:05;;;;;;;6.28;4.55;;;;;;;;;;4985191;28;20027;-56
2022/03/10 04:10:32;;;;;;;6.63;4.50;;;;;;;;;;4985629;28;20027;-55
2022/03/10 04:12:58;;;;;;;6.25;4.97;;;;;;;;;;4984306;28;20120;-55
2022/03/10 04:15:24;;;;;;;7.78;5.32;;;;;;;;;;4986024;28;20022;-55
2022/03/10 04:17:50;;;;;;;7.45;5.28;;;;;;;;;;4985433;28;20026;-54
2022/03/10 04:20:16;;;;;;;7.07;5.10;;;;;;;;;;4985539;28;20066;-55
2022/03/10 04:22:42;;;;;;;8.73;5.00;;;;;;;;;;4984427;28;20397;-55
2022/03/10 04:25:08;;;;;;;6.78;5.35;;;;;;;;;;4984855;28;20092;-55
2022/03/10 04:27:35;;;;;;;6.35;4.82;;;;;;;;;;4985224;28;20049;-55
2022/03/10 04:30:02;;;;;;;6.72;4.68;;;;;;;;;;4985272;28;20112;-55
2022/03/10 04:32:28;;;;;;;7.20;5.55;;;;;;;;;;4985293;28;20030;-55
2022/03/10 04:34:54;;;;;;;7.15;5.22;;;;;;;;;;4984718;28;20509;-55
2022/03/10 04:37:20;;;;;;;9.05;6.00;;;;;;;;;;4983842;28;20026;-54
2022/03/10 04:39:47;;;;;;;9.20;6.38;;;;;;;;;;4967854;28;20081;-54
2022/03/10 04:42:13;;;;;;;8.63;6.05;;;;;;;;;;4985323;28;20030;-55
2022/03/10 04:44:39;;;;;;;9.25;6.40;;;;;;;;;;4985108;28;20100;-55
2022/03/10 04:47:05;;;;;;;8.85;6.25;;;;;;;;;;4984909;28;20030;-55
2022/03/10 04:49:31;;;;;;;9.20;5.80;;;;;;;;;;4985294;28;20062;-55
2022/03/10 04:51:58;;;;;;;10.07;7.03;;;;;;;;;;4985686;28;20019;-55
2022/03/10 04:54:24;;;;;;;7.95;5.90;;;;;;;;;;4985740;28;20029;-55
2022/03/10 04:56:50;;;;;;;8.85;6.00;;;;;;;;;;4984961;28;20041;-55
2022/03/10 04:59:16;;;;;;;8.70;6.15;;;;;;;;;;4983980;28;20030;-55
2022/03/10 05:01:42;;;;;;;8.60;6.00;;;;;;;;;;4984623;28;20022;-55
2022/03/10 05:04:08;;;;;;;8.93;6.07;;;;;;;;;;4985168;28;20069;-53
2022/03/10 05:06:35;;;;;;;7.55;5.85;;;;;;;;;;4985079;28;20061;-54
2022/03/10 05:09:02;;;;;;;7.13;4.90;;;;;;;;;;4984911;28;20474;-55
2022/03/10 05:11:29;;;;;;;6.78;5.15;;;;;;;;;;4984970;28;20027;-55
2022/03/10 05:13:55;;;;;;;6.47;4.53;;;;;;;;;;4982641;28;20066;-55
2022/03/10 05:16:21;;;;;;;8.63;6.00;;;;;;;;;;4983905;28;20501;-55
2022/03/10 05:18:47;;;;;;;7.70;5.75;;;;;;;;;;4979634;28;20684;-55
2022/03/10 05:21:13;;;;;;;9.75;6.38;;;;;;;;;;4990016;28;20026;-55
2022/03/10 05:23:39;;;;;;;9.18;6.13;;;;;;;;;;4989641;28;20438;-56
2022/03/10 05:26:05;;;;;;;8.70;6.10;;;;;;;;;;4989392;28;20038;-55
2022/03/10 05:28:32;;;;;;;7.95;5.32;;;;;;;;;;4987636;28;20113;-54
2022/03/10 05:30:58;;;;;;;6.80;5.50;;;;;;;;;;4977186;28;20550;-55
2022/03/10 05:33:25;;;;;;;9.20;6.10;;;;;;;;;;4982301;28;20528;-55
2022/03/10 05:35:52;;;;;;;5.68;4.63;;;;;;;;;;4989429;28;20023;-55
2022/03/10 05:38:18;;;;;;;7.00;5.13;;;;;;;;;;4989809;28;20088;-55
2022/03/10 05:40:44;;;;;;;5.35;4.15;;;;;;;;;;4989603;28;20029;-60
2022/03/10 05:43:10;;;;;;;6.85;5.00;;;;;;;;;;4985899;28;20481;-55
2022/03/10 05:45:36;;;;;;;6.38;4.68;;;;;;;;;;5008922;28;20030;-55
2022/03/10 05:48:02;;;;;;;7.05;5.30;;;;;;;;;;5001283;28;20019;-55
2022/03/10 05:50:28;;;;;;;7.30;4.93;;;;;;;;;;4989663;28;20118;-55
2022/03/10 05:52:57;;;;;;;6.63;5.05;;;;;;;;;;4989707;28;20379;-55
2022/03/10 05:55:23;;;;;;;7.53;6.00;;;;;;;;;;4989536;28;20027;-55
2022/03/10 05:57:49;;;;;;;7.60;5.43;;;;;;;;;;4988931;28;20112;-55
2022/03/10 06:00:15;;;;;;;7.50;5.70;;;;;;;;;;4989470;28;20546;-56
2022/03/10 06:02:42;;;;;;;7.47;4.80;;;;;;;;;;4978087;28;20085;-55
2022/03/10 06:05:09;;;;;;;8.25;5.57;;;;;;;;;;4989124;28;20041;-55
2022/03/10 06:07:35;;;;;;;7.40;5.47;;;;;;;;;;4989016;28;20520;-55
2022/03/10 06:10:01;;;;;;;7.75;5.55;;;;;;;;;;4988251;28;20053;-55
2022/03/10 06:12:28;;;;;;;8.98;5.85;;;;;;;;;;4989586;28;20022;-55
2022/03/10 06:14:55;;;;;;;8.05;5.28;;;;;;;;;;4988954;28;20072;-55
2022/03/10 06:17:21;;;;;;;8.30;4.95;;;;;;;;;;4988681;28;20429;-55
2022/03/10 06:19:48;;;;;;;7.32;5.20;;;;;;;;;;4987721;28;20062;-54
2022/03/10 06:22:21;;;;;;;7.38;5.28;;;;;;;;;;4988966;28;20026;-55
2022/03/10 06:24:47;;;;;;;5.75;4.40;;;;;;;;;;4981255;28;20038;-55
2022/03/10 06:27:14;;;;;;;6.53;4.72;;;;;;;;;;4967852;28;20037;-55
2022/03/10 06:29:41;;;;;;;6.03;4.45;;;;;;;;;;4967129;28;20027;-54
2022/03/10 06:32:07;;;;;;;5.75;4.22;;;;;;;;;;4983192;28;20498;-55
2022/03/10 06:34:37;;;;;;;5.63;3.85;;;;;;;;;;4987501;28;20040;-55
2022/03/10 06:37:03;;;;;;;5.40;3.90;;;;;;;;;;4984386;28;20037;-55
2022/03/10 06:39:29;;;;;;;5.63;4.10;;;;;;;;;;4988164;28;20436;-54
2022/03/10 06:41:57;;;;;;;5.47;3.78;;;;;;;;;;4985877;28;20072;-55
2022/03/10 06:44:23;;;;;;;6.05;4.20;;;;;;;;;;4985658;28;20034;-55
2022/03/10 06:46:49;;;;;;;5.38;3.83;;;;;;;;;;4987584;28;20042;-55
2022/03/10 06:49:15;;;;;;;5.43;3.95;;;;;;;;;;4988229;28;20026;-55
2022/03/10 06:51:42;;;;;;;6.22;4.53;;;;;;;;;;4986641;28;20033;-54
2022/03/10 06:54:08;;;;;;;7.72;5.25;;;;;;;;;;4988081;28;20092;-55
2022/03/10 06:56:35;;;;;;;7.63;5.05;;;;;;;;;;4988262;28;20029;-55
2022/03/10 06:59:01;;;;;;;7.82;5.50;;;;;;;;;;4987522;28;20034;-55
2022/03/10 07:01:28;;;;;;;8.90;5.50;;;;;;;;;;4987543;28;20023;-55
2022/03/10 07:03:57;;;;;;;10.27;6.65;;;;;;;;;;4987827;28;20038;-56
2022/03/10 07:06:23;;;;;;;9.30;6.43;;;;;;;;;;4985651;28;20026;-55
2022/03/10 07:08:49;;;;;;;9.93;6.90;;;;;;;;;;4986340;28;20069;-55
2022/03/10 07:11:16;;;;;;;9.55;6.70;;;;;;;;;;4987597;28;20023;-55
2022/03/10 07:13:42;;;;;;;11.25;6.75;;;;;;;;;;4986864;28;20474;-55
2022/03/10 07:16:09;;;;;;;11.00;6.80;;;;;;;;;;4986339;28;20030;-55
2022/03/10 07:18:35;;;;;;;10.88;7.20;;;;;;;;;;4984418;28;20033;-56
2022/03/10 07:21:04;;;;;;;12.25;7.60;;;;;;;;;;4981587;28;20037;-55
2022/03/10 07:23:30;;;;;;;10.85;6.97;;;;;;;;;;4968116;28;20386;-55
2022/03/10 07:25:56;;;;;;;9.85;6.85;;;;;;;;;;4973046;28;20054;-54
2022/03/10 07:28:23;;;;;;;9.65;6.38;;;;;;;;;;4985825;28;20027;-55
2022/03/10 07:30:49;;;;;;;8.63;6.03;;;;;;;;;;4977143;28;20019;-54
2022/03/10 07:33:16;;;;;;;9.35;6.63;;;;;;;;;;4971254;28;20030;-55
2022/03/10 07:35:42;;;;;;;7.57;5.50;;;;;;;;;;4969529;28;20457;-55
2022/03/10 07:38:10;;;;;;;10.27;6.70;;;;;;;;;;4986616;28;20505;-55
2022/03/10 07:40:38;;;;;;;9.45;6.55;;;;;;;;;;4985475;28;20457;-54
2022/03/10 07:43:05;;;;;;;10.23;6.40;;;;;;;;;;4977171;28;20520;-55
2022/03/10 07:45:32;;;;;;;12.32;6.72;;;;;;;;;;4986588;28;20066;-55
2022/03/10 07:47:58;;;;;;;6.78;5.07;;;;;;;;;;4984691;28;20030;-55
2022/03/10 07:50:24;;;;;;;6.72;5.25;;;;;;;;;;4986164;28;20026;-55
2022/03/10 07:52:50;;;;;;;8.77;5.90;;;;;;;;;;4983210;28;20468;-55
2022/03/10 07:55:17;;;;;;;7.50;5.55;;;;;;;;;;4979366;28;20066;-55
2022/03/10 07:57:43;;;;;;;6.57;4.32;;;;;;;;;;4983421;28;20551;-54
2022/03/10 08:00:10;;;;;;;6.03;4.63;;;;;;;;;;4985705;28;20565;-55
2022/03/10 08:02:37;;;;;;;8.30;5.55;;;;;;;;;;4984000;28;20031;-55
2022/03/10 08:05:04;;;;;;;6.07;4.90;;;;;;;;;;4968336;28;20037;-54
2022/03/10 08:07:34;;;;;;;7.80;5.15;;;;;;;;;;4985358;28;20034;-54
2022/03/10 08:10:03;;;;;;;5.93;4.40;;;;;;;;;;4987148;28;20521;-54
2022/03/10 08:12:30;;;;;;;5.80;4.03;;;;;;;;;;4986564;28;20053;-54
2022/03/10 08:14:57;;;;;;;5.25;3.83;;;;;;;;;;4986302;28;20054;-55
2022/03/10 08:17:23;;;;;;;4.90;3.53;;;;;;;;;;4985831;28;20061;-55
2022/03/10 08:19:49;;;;;;;6.93;4.45;;;;;;;;;;4985705;28;20110;-55
2022/03/10 08:22:17;;;;;;;6.10;4.50;;;;;;;;;;4986641;28;20050;-54
2022/03/10 08:24:45;;;;;;;5.15;4.00;;;;;;;;;;4986172;28;20109;-55
2022/03/10 08:27:13;;;;;;;6.15;4.50;;;;;;;;;;4985418;28;20561;-54
2022/03/10 08:29:39;;;;;;;6.03;4.25;;;;;;;;;;4986326;28;20058;-55
2022/03/10 08:32:06;;;;;;;6.00;3.97;;;;;;;;;;4974689;28;20489;-55
2022/03/10 08:34:32;;;;;;;5.45;3.92;;;;;;;;;;4979188;28;20039;-55
2022/03/10 08:36:59;;;;;;;5.90;3.97;;;;;;;;;;4974639;28;20030;-55
2022/03/10 08:39:26;;;;;;;4.95;3.47;;;;;;;;;;4986276;28;20457;-55
2022/03/10 08:41:53;;;;;;;4.78;3.33;;;;;;;;;;4985743;28;20036;-56
2022/03/10 08:44:20;;;;;;;4.75;3.88;;;;;;;;;;4982905;28;20034;-56
2022/03/10 08:46:46;;;;;;;5.35;3.53;;;;;;;;;;4987076;28;20034;-55
2022/03/10 08:49:17;;;;;;;5.47;3.83;;;;;;;;;;4987399;28;20105;-55
2022/03/10 08:51:44;;;;;;;7.50;4.78;;;;;;;;;;4986258;28;20027;-54
2022/03/10 08:54:12;;;;;;;4.97;4.07;;;;;;;;;;4987081;28;20027;-55
2022/03/10 08:56:38;;;;;;;5.63;3.88;;;;;;;;;;4986843;28;20404;-55
2022/03/10 08:59:04;;;;;;;5.47;3.55;;;;;;;;;;4991277;28;20054;-55
2022/03/10 09:01:30;;;;;;;3.97;3.20;;;;;;;;;;4991132;28;20032;-55
2022/03/10 09:03:58;;;;;;;3.75;3.17;;;;;;;;;;4991141;28;20065;-56
2022/03/10 09:06:24;;;;;;;7.22;3.45;;;;;;;;;;4991758;28;20505;-55
2022/03/10 09:08:50;;;;;;;4.10;3.05;;;;;;;;;;4990826;28;20023;-55
2022/03/10 09:11:16;;;;;;;3.08;2.65;;;;;;;;;;4990602;28;20027;-55
2022/03/10 09:13:48;;;;;;;5.32;3.95;;;;;;;;;;4986440;28;20073;-55
2022/03/10 09:16:21;;;;;;;5.90;4.00;;;;;;;;;;4988886;28;20569;-55
2022/03/10 09:18:48;;;;;;;4.80;3.75;;;;;;;;;;4985950;28;20513;-56
2022/03/10 09:21:15;;;;;;;5.28;3.47;;;;;;;;;;4992206;28;20509;-56
2022/03/10 09:23:41;;;;;;;3.42;2.92;;;;;;;;;;5010183;28;20041;-56
2022/03/10 09:26:07;;;;;;;5.03;3.80;;;;;;;;;;5001082;28;20030;-56
2022/03/10 09:28:33;;;;;;;5.07;3.67;;;;;;;;;;4990861;28;20034;-55
2022/03/10 09:31:00;;;;;;;7.28;4.85;;;;;;;;;;4989410;28;20101;-56
2022/03/10 09:33:26;;;;;;;4.75;3.80;;;;;;;;;;4994425;28;20026;-56
2022/03/10 09:35:52;;;;;;;7.10;4.88;;;;;;;;;;5004745;28;20097;-56
2022/03/10 09:38:19;;;;;;;5.40;4.18;;;;;;;;;;5000948;28;20069;-56
2022/03/10 09:40:46;;;;;;;5.90;3.90;;;;;;;;;;4989685;28;20085;-56
2022/03/10 09:43:12;;;;;;;4.80;3.40;;;;;;;;;;4990283;28;20026;-56
2022/03/10 09:45:40;;;;;;;4.97;3.28;;;;;;;;;;4988405;28;20046;-57
2022/03/10 09:48:06;;;;;;;4.43;3.38;;;;;;;;;;4990213;28;20038;-56
2022/03/10 09:50:32;;;;;;;5.97;3.58;;;;;;;;;;4986053;28;20392;-56
2022/03/10 09:52:58;;;;;;;11.40;4.30;;;;;;;;;;4990451;28;20053;-56
2022/03/10 09:55:24;;;;;;;4.72;3.53;;;;;;;;;;4988238;28;20497;-56
2022/03/10 09:57:50;;;;;;;4.18;3.15;;;;;;;;;;4989516;28;20057;-56
2022/03/10 10:00:17;;;;;;;5.47;3.50;;;;;;;;;;4990155;28;20022;-56
2022/03/10 10:02:44;;;;;;;5.40;3.53;;;;;;;;;;4989690;28;20034;-57
2022/03/10 10:05:20;;;;;;;7.57;5.03;;;;;;;;;;4986018;28;20105;-57
2022/03/10 10:08:00;;;;;;;7.20;4.72;;;;;;;;;;4973645;28;20042;-57
2022/03/10 10:10:30;;;;;;;7.30;5.20;;;;;;;;;;4985650;28;20486;-58
2022/03/10 10:12:56;;;;;;;5.25;3.90;;;;;;;;;;4988520;28;20030;-57
2022/03/10 10:15:22;;;;;;;5.20;3.60;;;;;;;;;;4982093;28;20486;-57
2022/03/10 10:17:57;;;;;;;5.90;4.80;;;;;;;;;;4983298;28;20030;-57
2022/03/10 10:20:23;;;;;;;6.03;4.30;;;;;;;;;;4985786;28;20600;-57
2022/03/10 10:22:51;;;;;;;4.00;3.28;;;;;;;;;;4988135;28;20473;-56
2022/03/10 10:25:23;;;;;;;3.38;2.95;;;;;;;;;;4986503;28;20034;-56
2022/03/10 10:27:49;;;;;;;5.05;3.33;;;;;;;;;;4987448;28;20600;-57
2022/03/10 10:30:16;;;;;;;4.10;3.00;;;;;;;;;;4984875;28;20033;-56
2022/03/10 10:32:43;;;;;;;4.03;3.13;;;;;;;;;;4987478;28;20030;-56
2022/03/10 10:35:13;;;;;;;5.15;3.42;;;;;;;;;;4986431;28;20030;-56
2022/03/10 10:37:42;;;;;;;3.78;2.88;;;;;;;;;;4986949;28;20034;-57
2022/03/10 10:40:09;;;;;;;3.55;2.42;;;;;;;;;;4972668;28;20042;-57
2022/03/10 10:42:36;;;;;;;2.97;2.47;;;;;;;;;;4986524;28;20042;-56
2022/03/10 10:45:22;;;;;;;3.78;3.10;;;;;;;;;;4985971;28;20041;-56
2022/03/10 10:48:03;;;;;;;4.65;3.85;;;;;;;;;;4989326;28;20517;-57
2022/03/10 10:50:30;;;;;;;5.85;4.40;;;;;;;;;;5006620;28;20360;-57
2022/03/10 10:52:56;;;;;;;7.35;5.13;;;;;;;;;;5001193;28;20026;-57
2022/03/10 10:55:30;;;;;;;6.60;4.75;;;;;;;;;;4986718;28;20034;-57
2022/03/10 10:57:56;;;;;;;;;;;;;;;;;;4983547;28;20069;-57
2022/03/10 11:00:22;;;;;;;4.30;3.40;;;;;;;;;;4988234;28;19909;-56
2022/03/10 11:02:50;;;;;;;5.38;3.58;;;;;;;;;;4987729;28;20202;-56
2022/03/10 11:05:16;;;;;;;4.68;3.30;;;;;;;;;;4987231;28;20304;-57
2022/03/10 11:07:42;;;;;;;3.80;2.65;;;;;;;;;;5006987;28;20109;-56
2022/03/10 11:10:10;;;;;;;2.63;2.17;;;;;;;;;;4989825;28;20030;-57
2022/03/10 11:12:39;;;;;;;3.38;2.47;;;;;;;;;;4988182;28;20030;-57
2022/03/10 11:15:07;;;;;;;2.53;2.10;;;;;;;;;;4987282;28;20038;-57
2022/03/10 11:17:34;;;;;;;2.13;1.88;;;;;;;;;;4983232;28;20409;-57
2022/03/10 11:20:02;;;;;;;3.67;2.38;;;;;;;;;;4980724;28;20407;-56
2022/03/10 11:22:29;;;;;;;4.93;2.90;;;;;;;;;;4976047;28;20041;-56
2022/03/10 11:24:57;;;;;;;4.68;3.00;;;;;;;;;;4987232;28;20030;-55
2022/03/10 11:27:27;;;;;;;3.85;2.53;;;;;;;;;;4986836;28;20035;-57
2022/03/10 11:29:54;;;;;;;3.45;2.33;;;;;;;;;;4985990;28;20635;-56
2022/03/10 11:32:27;;;;;;;3.85;3.10;;;;;;;;;;4984343;28;20080;-57
2022/03/10 11:34:54;;;;;;;5.00;2.60;;;;;;;;;;4983904;28;20050;-57
2022/03/10 11:37:35;;;;;;;3.30;2.67;;;;;;;;;;4985132;28;20030;-57
2022/03/10 11:40:01;;;;;;;3.22;2.53;;;;;;;;;;4986964;28;20410;-56
2022/03/10 11:42:31;;;;;;;2.65;2.30;;;;;;;;;;4987541;28;20030;-57
2022/03/10 11:45:10;;;;;;;2.38;1.88;;;;;;;;;;4984346;28;20046;-57
2022/03/10 11:47:37;;;;;;;3.55;2.10;;;;;;;;;;4982650;28;20030;-57
2022/03/10 11:50:24;;;;;;;2.10;1.63;;;;;;;;;;4985402;28;20032;-56
2022/03/10 11:52:53;;;;;;;4.38;2.10;;;;;;;;;;4986495;28;20049;-56
2022/03/10 11:55:20;;;;;;;5.03;2.50;;;;;;;;;;4977179;28;20038;-56
2022/03/10 11:57:56;;;;;;;2.97;2.25;;;;;;;;;;4987020;28;20026;-56
2022/03/10 12:00:47;;;;;;;2.78;2.15;;;;;;;;;;4986390;28;20092;-56
2022/03/10 12:03:25;;;;;;;4.50;2.47;;;;;;;;;;4974342;28;20038;-57
2022/03/10 12:05:52;;;;;;;4.25;1.90;;;;;;;;;;4986386;28;20038;-57
2022/03/10 12:08:19;;;;;;;2.50;2.00;;;;;;;;;;4986689;28;20022;-57
2022/03/10 12:10:47;;;;;;;2.78;2.30;;;;;;;;;;4986949;28;20035;-57
2022/03/10 12:13:28;;;;;;;3.53;2.28;;;;;;;;;;4986702;28;20072;-57
2022/03/10 12:15:55;;;;;;;3.47;2.30;;;;;;;;;;4985455;28;20075;-56
2022/03/10 12:18:24;;;;;;;4.30;2.65;;;;;;;;;;4985676;28;20465;-57
2022/03/10 12:20:54;;;;;;;2.13;1.85;;;;;;;;;;4987589;28;20562;-56
2022/03/10 12:23:22;;;;;;;3.05;1.98;;;;;;;;;;4986449;28;20018;-57
2022/03/10 12:26:07;;;;;;;2.72;1.98;;;;;;;;;;4980748;28;20428;-57
2022/03/10 12:28:42;;;;;;;3.42;2.10;;;;;;;;;;4966968;28;20035;-57
2022/03/10 12:31:11;;;;;;;3.40;2.17;;;;;;;;;;4970407;28;20473;-57
2022/03/10 12:33:44;;;;;;;3.10;1.90;;;;;;;;;;4974037;28;20070;-57
2022/03/10 12:36:11;;;;;;;2.25;1.90;;;;;;;;;;4973190;28;20026;-57
2022/03/10 12:38:39;;;;;;;5.20;2.25;;;;;;;;;;4982217;28;20031;-57
2022/03/10 12:41:06;;;;;;;3.28;2.50;;;;;;;;;;4998989;28;20079;-57
2022/03/10 12:43:33;;;;;;;2.70;2.00;;;;;;;;;;4984461;28;20031;-56
2022/03/10 12:45:59;;;;;;;3.08;2.10;;;;;;;;;;4985289;28;20317;-56
2022/03/10 12:48:40;;;;;;;2.28;1.98;;;;;;;;;;4976961;28;20050;-56
2022/03/10 12:51:19;;;;;;;2.75;2.10;;;;;;;;;;4986704;28;20029;-56
2022/03/10 12:53:45;;;;;;;2.92;2.17;;;;;;;;;;4985853;28;20030;-56
2022/03/10 12:56:11;;;;;;;2.05;1.85;;;;;;;;;;4986678;28;20077;-56
2022/03/10 12:58:38;;;;;;;6.55;2.60;;;;;;;;;;4973133;28;20050;-56
2022/03/10 13:01:05;;;;;;;3.55;2.45;;;;;;;;;;4985372;28;20573;-57
2022/03/10 13:03:34;;;;;;;2.85;2.22;;;;;;;;;;4987015;28;20057;-56
2022/03/10 13:06:02;;;;;;;2.85;2.10;;;;;;;;;;4985782;28;20030;-57
2022/03/10 13:08:29;;;;;;;3.20;2.20;;;;;;;;;;4987080;28;20057;-57
2022/03/10 13:11:02;;;;;;;2.72;2.05;;;;;;;;;;4985245;28;20582;-56
2022/03/10 13:13:29;;;;;;;2.88;1.80;;;;;;;;;;4984917;28;20109;-57
2022/03/10 13:15:59;;;;;;;2.25;2.00;;;;;;;;;;4986166;28;20030;-56
2022/03/10 13:18:25;;;;;;;3.53;2.03;;;;;;;;;;4986494;28;20032;-56
2022/03/10 13:20:51;;;;;;;2.55;1.90;;;;;;;;;;4981801;28;20082;-56
2022/03/10 13:23:24;;;;;;;4.60;2.03;;;;;;;;;;4981153;28;20034;-56
2022/03/10 13:25:50;;;;;;;3.08;2.35;;;;;;;;;;4985487;28;20026;-56
2022/03/10 13:28:16;;;;;;;2.75;2.00;;;;;;;;;;4985110;28;20516;-56
2022/03/10 13:30:43;;;;;;;3.17;2.20;;;;;;;;;;4984953;28;20026;-57
2022/03/10 13:33:10;;;;;;;3.80;2.03;;;;;;;;;;4983891;28;20026;-57
2022/03/10 13:35:37;;;;;;;3.17;1.88;;;;;;;;;;4982630;28;20122;-57
2022/03/10 13:38:05;;;;;;;3.28;2.10;;;;;;;;;;4983486;28;20077;-57
2022/03/10 13:40:33;;;;;;;3.88;2.45;;;;;;;;;;4983327;28;20032;-57
2022/03/10 13:43:00;;;;;;;3.03;2.00;;;;;;;;;;4988804;28;20026;-56
2022/03/10 13:45:26;;;;;;;2.58;2.10;;;;;;;;;;4987936;28;20081;-56
2022/03/10 13:47:53;;;;;;;3.03;2.40;;;;;;;;;;4962850;28;20391;-56
2022/03/10 13:50:23;;;;;;;2.97;2.38;;;;;;;;;;4985326;28;20026;-57
2022/03/10 13:52:50;;;;;;;2.47;2.00;;;;;;;;;;4987689;28;20033;-56
2022/03/10 13:55:16;;;;;;;3.85;2.55;;;;;;;;;;4987807;28;20691;-56
2022/03/10 13:57:46;;;;;;;2.42;1.95;;;;;;;;;;4989750;28;20038;-56
2022/03/10 14:00:13;;;;;;;3.72;1.88;;;;;;;;;;4989766;28;20030;-56
2022/03/10 14:02:48;;;;;;;3.65;2.20;;;;;;;;;;4971417;28;20058;-56
2022/03/10 14:05:14;;;;;;;4.68;2.00;;;;;;;;;;4985475;28;20513;-56
2022/03/10 14:07:40;;;;;;;2.90;2.20;;;;;;;;;;4992058;28;20040;-56
2022/03/10 14:10:07;;;;;;;2.78;2.30;;;;;;;;;;4977682;28;20547;-56
2022/03/10 14:12:33;;;;;;;3.70;2.25;;;;;;;;;;4972278;28;20023;-56
2022/03/10 14:14:59;;;;;;;3.28;2.25;;;;;;;;;;4988793;28;20057;-56
2022/03/10 14:17:41;;;;;;;2.63;1.80;;;;;;;;;;4989548;28;20026;-57
2022/03/10 14:20:07;;;;;;;2.75;2.05;;;;;;;;;;4988451;28;20050;-56
2022/03/10 14:22:35;;;;;;;3.35;2.25;;;;;;;;;;4989333;28;20031;-56
2022/03/10 14:25:01;;;;;;;3.00;1.90;;;;;;;;;;4988808;28;20042;-56
2022/03/10 14:27:27;;;;;;;3.38;2.10;;;;;;;;;;4989394;28;20034;-57
2022/03/10 14:30:00;;;;;;;1.98;1.45;;;;;;;;;;4989416;28;20027;-56
2022/03/10 14:32:27;;;;;;;2.38;1.83;;;;;;;;;;4989620;28;20418;-56
2022/03/10 14:34:54;;;;;;;1.90;1.60;;;;;;;;;;4987695;28;20393;-56
2022/03/10 14:37:20;;;;;;;1.92;1.55;;;;;;;;;;5007111;28;20033;-56
2022/03/10 14:39:46;;;;;;;3.05;1.52;;;;;;;;;;5008547;28;20033;-56
2022/03/10 14:42:12;;;;;;;2.60;1.92;;;;;;;;;;5009201;28;20069;-56
2022/03/10 14:44:38;;;;;;;3.25;2.10;;;;;;;;;;4999127;28;20046;-56
2022/03/10 14:47:04;;;;;;;2.83;2.00;;;;;;;;;;4987963;28;20565;-56